TimeMDT,TemperatureF,Dew PointF,Humidity,Sea Level PressureIn,VisibilityMPH,Wind Direction,Wind SpeedMPH,Gust SpeedMPH,PrecipitationIn,Events,Conditions,WindDirDegrees,DateUTC
12:53 AM,45.0,28.9,53,29.97,10.0,North,5.8,-,N/A,,Clear,360,2013-06-12 06:53:00
1:53 AM,43.0,30.0,60,29.98,10.0,Calm,Calm,-,N/A,,Clear,0,2013-06-12 07:53:00
2:53 AM,45.0,33.1,63,29.95,10.0,North,8.1,-,N/A,,Clear,360,2013-06-12 08:53:00
3:53 AM,43.0,32.0,65,29.96,10.0,Calm,Calm,-,N/A,,Mostly Cloudy,0,2013-06-12 09:53:00
4:53 AM,46.0,34.0,63,29.97,10.0,East,3.5,-,N/A,,Mostly Cloudy,100,2013-06-12 10:53:00
5:53 AM,46.9,34.0,61,29.97,10.0,Calm,Calm,-,N/A,,Mostly Cloudy,0,2013-06-12 11:53:00
6:53 AM,46.9,37.0,68,30.00,10.0,East,6.9,-,N/A,,Clear,80,2013-06-12 12:53:00
7:53 AM,50.0,39.9,68,29.99,10.0,WSW,3.5,-,N/A,,Mostly Cloudy,240,2013-06-12 13:53:00
8:53 AM,57.0,39.9,53,30.00,10.0,Calm,Calm,-,N/A,,Mostly Cloudy,0,2013-06-12 14:53:00
9:53 AM,64.0,35.1,34,29.98,10.0,Calm,Calm,-,N/A,,Clear,0,2013-06-12 15:53:00
10:53 AM,69.1,33.1,26,29.94,10.0,Variable,4.6,-,N/A,,Clear,0,2013-06-12 16:53:00
11:53 AM,72.0,32.0,23,29.95,10.0,SSW,4.6,-,N/A,,Clear,200,2013-06-12 17:53:00
12:53 PM,75.0,28.0,18,29.92,10.0,Calm,Calm,-,N/A,,Partly Cloudy,0,2013-06-12 18:53:00
1:53 PM,75.0,28.0,18,29.90,10.0,WNW,8.1,-,N/A,,Scattered Clouds,300,2013-06-12 19:53:00
2:53 PM,78.1,30.0,17,29.86,10.0,SW,5.8,-,N/A,,Mostly Cloudy,230,2013-06-12 20:53:00
3:35 PM,77.0,28.4,17,30.14,10.0,WSW,17.3,28.8,N/A,,Mostly Cloudy,240,2013-06-12 21:35:00
3:53 PM,80.1,28.9,15,29.86,10.0,WSW,11.5,29.9,N/A,,Mostly Cloudy,240,2013-06-12 21:53:00
4:53 PM,80.1,25.0,13,29.86,10.0,WSW,28.8,34.5,N/A,,Scattered Clouds,240,2013-06-12 22:53:00
5:53 PM,80.1,28.0,15,29.83,10.0,WSW,24.2,31.1,N/A,,Clear,250,2013-06-12 23:53:00
6:53 PM,75.9,23.0,14,29.85,10.0,WSW,20.7,32.2,N/A,,Clear,240,2013-06-13 00:53:00
7:53 PM,73.0,21.0,14,29.86,10.0,SW,18.4,27.6,N/A,,Clear,230,2013-06-13 01:53:00
8:53 PM,63.0,28.9,28,29.86,10.0,WSW,5.8,-,N/A,,Clear,240,2013-06-13 02:53:00
9:53 PM,62.1,24.1,23,29.84,10.0,SSW,4.6,-,N/A,,Clear,210,2013-06-13 03:53:00
10:53 PM,53.1,24.1,32,29.85,10.0,Calm,Calm,-,N/A,,Clear,0,2013-06-13 04:53:00
11:53 PM,55.9,23.0,28,29.83,10.0,Calm,Calm,-,N/A,,Clear,0,2013-06-13 05:53:00